Time;durP1;ratioP1;P1;durP2;ratioP2;P2;SDS_P1;SDS_P2;PMS_P1;PMS_P2;Temp;Humidity;BMP_temperature;BMP_pressure;BME280_temperature;BME280_humidity;BME280_pressure;Samples;Min_cycle;Max_cycle;Signal;HPM_P1;HPM_P2
2024/03/10 00:00:14;;;;;;;46.70;28.33;;;;;;;-146.18;100.00;67994.34;10356348;27;20067;-70
2024/03/10 00:05:12;;;;;;;49.53;29.83;;;;;;;-146.18;100.00;67994.34;10354370;27;20052;-70
2024/03/10 00:10:10;;;;;;;47.58;27.98;;;;;;;-146.18;100.00;67994.34;10355396;27;20551;-70
2024/03/10 00:15:08;;;;;;;45.00;28.92;;;;;;;-146.18;100.00;67994.34;10347089;27;20504;-70
2024/03/10 00:20:05;;;;;;;46.42;29.92;;;;;;;-146.18;100.00;67994.34;10353354;27;20512;-70
2024/03/10 00:25:02;;;;;;;45.40;27.80;;;;;;;-146.18;100.00;67994.34;10348888;27;20067;-71
2024/03/10 00:29:59;;;;;;;45.88;29.13;;;;;;;-146.18;100.00;67994.34;10366772;28;20046;-69
2024/03/10 00:34:56;;;;;;;46.50;28.52;;;;;;;-146.18;100.00;67994.34;10353153;27;20048;-69
2024/03/10 00:39:53;;;;;;;48.05;28.52;;;;;;;-146.18;100.00;67994.34;10353394;27;20048;-69
2024/03/10 00:44:52;;;;;;;43.30;27.30;;;;;;;-146.18;100.00;67994.34;10353047;27;20052;-69
2024/03/10 00:49:49;;;;;;;41.88;27.65;;;;;;;-146.18;100.00;67994.34;10362329;27;20055;-70
2024/03/10 00:54:46;;;;;;;39.88;27.52;;;;;;;-146.18;100.00;67994.34;10350422;28;20410;-69
2024/03/10 00:59:42;;;;;;;44.30;28.70;;;;;;;-146.18;100.00;67994.34;10352856;27;20051;-70
2024/03/10 01:04:39;;;;;;;43.20;27.95;;;;;;;-146.18;100.00;67994.34;10347173;27;20055;-69
2024/03/10 01:09:35;;;;;;;42.53;27.80;;;;;;;-146.18;100.00;67994.34;10356516;27;20058;-69
2024/03/10 01:14:33;;;;;;;44.60;28.73;;;;;;;-146.18;100.00;67994.34;10350653;27;20651;-69
2024/03/10 01:19:32;;;;;;;48.05;30.33;;;;;;;-146.18;100.00;67994.34;10354280;27;20040;-69
2024/03/10 01:24:28;;;;;;;45.55;30.95;;;;;;;-146.18;100.00;67994.34;10347947;27;20048;-69
2024/03/10 01:29:25;;;;;;;49.63;31.05;;;;;;;-146.18;100.00;67994.34;10349870;27;20405;-69
2024/03/10 01:34:22;;;;;;;45.85;29.92;;;;;;;-146.18;100.00;67994.34;10351112;27;20051;-70
2024/03/10 01:39:18;;;;;;;44.70;30.23;;;;;;;-146.18;100.00;67994.34;10352098;27;20078;-69
2024/03/10 01:44:15;;;;;;;50.05;31.70;;;;;;;-146.18;100.00;67994.34;10351203;27;20044;-69
2024/03/10 01:49:11;;;;;;;48.00;29.88;;;;;;;-146.18;100.00;67994.34;10352408;27;20504;-71
2024/03/10 01:54:12;;;;;;;49.90;29.92;;;;;;;-146.18;100.00;67994.34;10348687;27;20053;-70
2024/03/10 01:59:12;;;;;;;46.00;30.70;;;;;;;-146.18;100.00;67994.34;10345314;27;21187;-70
2024/03/10 02:04:09;;;;;;;48.25;29.92;;;;;;;-146.18;100.00;67994.34;10351084;27;20465;-72
2024/03/10 02:09:06;;;;;;;43.97;28.20;;;;;;;-146.18;100.00;67994.34;10348798;27;20198;-69
2024/03/10 02:14:03;;;;;;;54.35;32.40;;;;;;;-146.18;100.00;67994.34;10363864;27;20048;-71
2024/03/10 02:18:59;;;;;;;46.30;30.42;;;;;;;-146.18;100.00;67994.34;10359177;27;20038;-70
2024/03/10 02:24:16;;;;;;;47.88;31.70;;;;;;;-146.18;100.00;67994.34;10353272;27;20069;-71
2024/03/10 02:29:18;;;;;;;50.80;31.73;;;;;;;-146.18;100.00;67994.34;10367903;27;20125;-71
2024/03/10 02:50:01;;;;;;;45.00;31.58;;;;;;;-146.18;100.00;67994.34;10306126;28;20056;-70
2024/03/10 02:54:58;;;;;;;49.80;31.45;;;;;;;-146.18;100.00;67994.34;10357836;28;20055;-70
2024/03/10 02:59:54;;;;;;;49.80;31.98;;;;;;;-146.18;100.00;67994.34;10373095;28;20496;-70
2024/03/10 03:04:51;;;;;;;43.00;29.50;;;;;;;-146.18;100.00;67994.34;10317631;28;20044;-68
2024/03/10 03:09:48;;;;;;;45.72;31.52;;;;;;;-146.18;100.00;67994.34;10317486;28;20054;-69
2024/03/10 03:14:44;;;;;;;45.35;30.33;;;;;;;-146.18;100.00;67994.34;10311246;28;20496;-69
2024/03/10 03:19:42;;;;;;;47.88;30.48;;;;;;;-146.18;100.00;67994.34;10307411;28;20090;-69
2024/03/10 03:24:39;;;;;;;43.97;29.92;;;;;;;-146.18;100.00;67994.34;10318871;28;20048;-69
2024/03/10 03:29:36;;;;;;;44.75;30.23;;;;;;;-146.18;100.00;67994.34;10356621;28;20097;-69
2024/03/10 03:34:33;;;;;;;46.38;29.92;;;;;;;-146.18;100.00;67994.34;10360089;27;20068;-69
2024/03/10 03:39:29;;;;;;;48.75;32.70;;;;;;;-146.18;100.00;67994.34;10371114;27;20704;-69
2024/03/10 03:44:26;;;;;;;45.40;29.95;;;;;;;-146.18;100.00;67994.34;10355744;27;20044;-69
2024/03/10 03:49:23;;;;;;;51.05;31.67;;;;;;;-146.18;100.00;67994.34;10348425;27;20055;-70
2024/03/10 03:54:20;;;;;;;45.63;30.73;;;;;;;-146.18;100.00;67994.34;10354776;27;20067;-69
2024/03/10 03:59:17;;;;;;;48.65;30.88;;;;;;;-146.18;100.00;67994.34;10343935;27;20048;-69
2024/03/10 04:04:13;;;;;;;47.80;30.02;;;;;;;-146.18;100.00;67994.34;10361193;27;20480;-70
2024/03/10 04:09:10;;;;;;;54.58;32.78;;;;;;;-146.18;100.00;67994.34;10357199;27;20048;-69
2024/03/10 04:14:07;;;;;;;46.17;30.52;;;;;;;-146.18;100.00;67994.34;10351992;27;20101;-69
2024/03/10 04:19:04;;;;;;;49.40;31.17;;;;;;;-146.18;100.00;67994.34;10355782;28;20139;-69
2024/03/10 04:24:01;;;;;;;43.63;29.27;;;;;;;-146.18;100.00;67994.34;10348875;27;20059;-69
2024/03/10 04:28:57;;;;;;;48.63;31.27;;;;;;;-146.18;100.00;67994.34;10349567;27;20122;-69
2024/03/10 04:33:54;;;;;;;57.65;32.88;;;;;;;-146.18;100.00;67994.34;10352634;27;20048;-68
2024/03/10 04:38:53;;;;;;;45.10;31.00;;;;;;;-146.18;100.00;67994.34;10358056;27;20523;-69
2024/03/10 04:43:49;;;;;;;50.80;31.77;;;;;;;-146.18;100.00;67994.34;10364668;27;20510;-69
2024/03/10 04:48:57;;;;;;;46.95;30.27;;;;;;;-146.18;100.00;67994.34;10355236;27;20393;-69
2024/03/10 04:53:53;;;;;;;50.67;32.38;;;;;;;-146.18;100.00;67994.34;10362623;27;20566;-69
2024/03/10 04:58:50;;;;;;;50.33;31.05;;;;;;;-146.18;100.00;67994.34;10360617;27;20330;-69
2024/03/10 05:03:46;;;;;;;49.13;33.47;;;;;;;-146.18;100.00;67994.34;10346770;27;20048;-69
2024/03/10 05:08:43;;;;;;;44.95;30.17;;;;;;;-146.18;100.00;67994.34;10360309;27;20044;-69
2024/03/10 05:13:39;;;;;;;51.58;32.50;;;;;;;-146.18;100.00;67994.34;10357750;27;20040;-70
2024/03/10 05:18:36;;;;;;;49.75;33.60;;;;;;;-146.18;100.00;67994.34;10348402;28;20047;-69
2024/03/10 05:23:32;;;;;;;53.80;32.40;;;;;;;-146.18;100.00;67994.34;10355523;27;20040;-70
2024/03/10 05:28:29;;;;;;;51.17;31.83;;;;;;;-146.18;100.00;67994.34;10353941;27;20128;-70
2024/03/10 05:33:26;;;;;;;51.53;33.58;;;;;;;-146.18;100.00;67994.34;10338943;27;20041;-67
2024/03/10 05:38:22;;;;;;;51.50;32.97;;;;;;;-146.18;100.00;67994.34;10358105;28;20239;-68
2024/03/10 05:43:19;;;;;;;54.35;32.95;;;;;;;-146.18;100.00;67994.34;10349297;27;20054;-68
2024/03/10 05:48:18;;;;;;;50.80;32.45;;;;;;;-146.18;100.00;67994.34;10347072;27;20048;-68
2024/03/10 05:53:15;;;;;;;51.65;33.65;;;;;;;-146.18;100.00;67994.34;10350655;27;20075;-69
2024/03/10 05:58:13;;;;;;;52.95;32.00;;;;;;;-146.18;100.00;67994.34;10349922;27;20044;-69
2024/03/10 06:03:09;;;;;;;47.65;30.30;;;;;;;-146.18;100.00;67994.34;10350639;27;20036;-70
2024/03/10 06:08:08;;;;;;;52.80;32.78;;;;;;;-146.18;100.00;67994.34;10349081;27;20058;-70
2024/03/10 06:13:05;;;;;;;53.28;34.30;;;;;;;-146.18;100.00;67994.34;10352133;27;20045;-71
2024/03/10 06:18:15;;;;;;;54.72;33.67;;;;;;;-146.18;100.00;67994.34;10357408;27;20041;-71
2024/03/10 06:28:27;;;;;;;54.78;34.03;;;;;;;-146.18;100.00;67994.34;10354484;27;20047;-70
2024/03/10 06:33:24;;;;;;;50.78;33.00;;;;;;;-146.18;100.00;67994.34;10351956;27;20479;-68
2024/03/10 06:38:20;;;;;;;47.20;32.00;;;;;;;-146.18;100.00;67994.34;10354737;27;20122;-71
2024/03/10 06:43:17;;;;;;;52.75;32.05;;;;;;;-146.18;100.00;67994.34;10347520;27;20185;-67
2024/03/10 06:48:15;;;;;;;46.83;30.20;;;;;;;-146.18;100.00;67994.34;10345776;27;20047;-71
2024/03/10 06:53:12;;;;;;;50.53;32.22;;;;;;;-146.18;100.00;67994.34;10353974;27;20052;-70
2024/03/10 06:58:08;;;;;;;47.67;33.03;;;;;;;-146.18;100.00;67994.34;10359727;27;20154;-71
2024/03/10 07:03:05;;;;;;;54.80;33.20;;;;;;;-146.18;100.00;67994.34;10356827;27;20496;-70
2024/03/10 07:08:03;;;;;;;54.53;34.22;;;;;;;-146.18;100.00;67994.34;10360886;27;20044;-71
2024/03/10 07:13:00;;;;;;;47.97;32.55;;;;;;;-146.18;100.00;67994.34;10350165;27;20638;-71
2024/03/10 07:17:57;;;;;;;51.85;33.20;;;;;;;-146.18;100.00;67994.34;10352393;27;20079;-70
2024/03/10 07:22:54;;;;;;;55.08;31.33;;;;;;;-146.18;100.00;67994.34;10359226;27;20081;-70
2024/03/10 07:27:51;;;;;;;54.13;32.55;;;;;;;-146.18;100.00;67994.34;10364134;27;20040;-70
2024/03/10 07:32:48;;;;;;;53.33;32.22;;;;;;;-146.18;100.00;67994.34;10357312;27;20044;-70
2024/03/10 07:37:44;;;;;;;51.00;32.33;;;;;;;-146.18;100.00;67994.34;10350500;28;20134;-74
2024/03/10 07:42:43;;;;;;;48.85;32.28;;;;;;;-146.18;100.00;67994.34;10352391;27;20044;-72
2024/03/10 07:47:44;;;;;;;47.90;31.50;;;;;;;-146.18;100.00;67994.34;10374026;27;20051;-73
2024/03/10 07:52:43;;;;;;;48.28;31.92;;;;;;;-146.18;100.00;67994.34;10372446;27;20050;-72
2024/03/10 07:57:39;;;;;;;49.67;32.17;;;;;;;-146.18;100.00;67994.34;10364908;27;20107;-71
2024/03/10 08:02:41;;;;;;;56.63;33.13;;;;;;;-146.18;100.00;67994.34;10366202;27;20040;-70
2024/03/10 08:07:41;;;;;;;28.83;22.48;;;;;;;-146.18;100.00;67994.34;10364658;27;20047;-70
2024/03/10 08:12:40;;;;;;;;;;;;;;;-146.18;100.00;67994.34;10358473;27;20431;-70
2024/03/10 08:17:36;;;;;;;53.67;32.03;;;;;;;-146.18;100.00;67994.34;10363594;27;19952;-70
2024/03/10 08:22:34;;;;;;;50.72;31.80;;;;;;;-146.18;100.00;67994.34;10368410;27;20044;-73
2024/03/10 08:27:31;;;;;;;48.63;31.17;;;;;;;-146.18;100.00;67994.34;10334677;27;20040;-72
2024/03/10 08:32:27;;;;;;;49.13;31.65;;;;;;;-146.18;100.00;67994.34;10348647;27;20046;-72
2024/03/10 08:37:24;;;;;;;55.03;31.52;;;;;;;-146.18;100.00;67994.34;10351902;28;20048;-72
2024/03/10 08:42:24;;;;;;;56.75;31.77;;;;;;;-146.18;100.00;67994.34;10354163;27;20044;-72
2024/03/10 08:47:20;;;;;;;44.78;29.85;;;;;;;-146.18;100.00;67994.34;10371485;27;20173;-72
2024/03/10 08:52:18;;;;;;;48.55;29.75;;;;;;;-146.18;100.00;67994.34;10361787;28;20044;-70
2024/03/10 08:57:16;;;;;;;48.05;28.45;;;;;;;-146.18;100.00;67994.34;10364640;27;20048;-70
2024/03/10 09:02:12;;;;;;;44.80;28.35;;;;;;;-146.18;100.00;67994.34;10363018;27;20046;-70
2024/03/10 09:07:09;;;;;;;42.45;28.70;;;;;;;-146.18;100.00;67994.34;10363617;27;20048;-71
2024/03/10 09:12:06;;;;;;;44.78;28.88;;;;;;;-146.18;100.00;67994.34;10353102;27;20416;-72
2024/03/10 09:17:03;;;;;;;39.97;23.77;;;;;;;-146.18;100.00;67994.34;10342187;28;20048;-70
2024/03/10 09:22:02;;;;;;;39.95;26.13;;;;;;;-146.18;100.00;67994.34;10350509;27;20108;-71
2024/03/10 09:26:59;;;;;;;38.45;24.63;;;;;;;-146.18;100.00;67994.34;10349316;27;20032;-72
2024/03/10 09:31:56;;;;;;;40.30;27.70;;;;;;;-146.18;100.00;67994.34;10343107;28;20044;-73
2024/03/10 09:36:55;;;;;;;38.25;25.75;;;;;;;-146.18;100.00;67994.34;10350791;27;20075;-71
2024/03/10 09:41:52;;;;;;;38.05;25.55;;;;;;;-146.18;100.00;67994.34;10349062;27;20053;-72
2024/03/10 09:46:49;;;;;;;38.20;24.90;;;;;;;-146.18;100.00;67994.34;10362533;28;20048;-69
2024/03/10 09:51:50;;;;;;;38.20;25.40;;;;;;;-146.18;100.00;67994.34;10358763;27;20066;-70
2024/03/10 09:56:47;;;;;;;30.60;20.23;;;;;;;-146.18;100.00;67994.34;10351545;27;20101;-69
2024/03/10 10:01:46;;;;;;;34.10;23.13;;;;;;;-146.18;100.00;67994.34;10344882;27;20044;-69
2024/03/10 10:06:45;;;;;;;42.17;25.02;;;;;;;-146.18;100.00;67994.34;10340843;27;20039;-68
2024/03/10 10:11:41;;;;;;;41.05;25.67;;;;;;;-146.18;100.00;67994.34;10350971;27;20052;-69
2024/03/10 10:16:38;;;;;;;37.60;24.42;;;;;;;-146.18;100.00;67994.34;10350935;27;20135;-69
2024/03/10 10:21:45;;;;;;;33.85;22.75;;;;;;;-146.18;100.00;67994.34;10344656;27;20055;-70
2024/03/10 10:26:42;;;;;;;32.38;22.15;;;;;;;-146.18;100.00;67994.34;10350885;27;20044;-70
2024/03/10 10:31:39;;;;;;;40.90;23.48;;;;;;;-146.18;100.00;67994.34;10356804;27;20495;-70
2024/03/10 10:36:35;;;;;;;24.55;15.98;;;;;;;-146.18;100.00;67994.34;10351401;27;20062;-70
2024/03/10 10:41:32;;;;;;;34.80;23.08;;;;;;;-146.18;100.00;67994.34;10345000;27;20036;-68
2024/03/10 10:46:29;;;;;;;35.83;22.77;;;;;;;-146.18;100.00;67994.34;10351749;27;20066;-70
2024/03/10 10:51:26;;;;;;;33.55;20.95;;;;;;;-146.18;100.00;67994.34;10354943;28;20044;-70
2024/03/10 10:56:22;;;;;;;32.22;22.48;;;;;;;-146.18;100.00;67994.34;10366217;27;20113;-72
2024/03/10 11:01:24;;;;;;;30.67;20.90;;;;;;;-146.18;100.00;67994.34;10355758;27;20048;-72
2024/03/10 11:06:21;;;;;;;31.10;20.45;;;;;;;-146.18;100.00;67994.34;10356727;27;20039;-72
2024/03/10 11:11:43;;;;;;;35.33;22.92;;;;;;;-146.18;100.00;67994.34;10357315;27;20059;-72
2024/03/10 11:16:40;;;;;;;34.85;22.85;;;;;;;-146.18;100.00;67994.34;10364887;27;20040;-72
2024/03/10 11:21:36;;;;;;;26.73;19.17;;;;;;;-146.18;100.00;67994.34;10354944;27;20043;-71
2024/03/10 11:26:33;;;;;;;35.22;23.52;;;;;;;-146.18;100.00;67994.34;10355222;27;20043;-70
2024/03/10 11:31:30;;;;;;;32.42;21.58;;;;;;;-146.18;100.00;67994.34;10355260;27;20089;-72
2024/03/10 11:36:35;;;;;;;35.75;22.63;;;;;;;-146.18;100.00;67994.34;10340094;27;20071;-73
2024/03/10 11:41:32;;;;;;;34.55;23.63;;;;;;;-146.18;100.00;67994.34;10352280;27;20047;-72
2024/03/10 11:46:35;;;;;;;31.25;21.25;;;;;;;-146.18;100.00;67994.34;10366516;27;20473;-71
2024/03/10 11:51:35;;;;;;;32.88;22.98;;;;;;;-146.18;100.00;67994.34;10368541;27;20040;-76
2024/03/10 11:56:34;;;;;;;33.13;23.55;;;;;;;-146.18;100.00;67994.34;10359886;27;20043;-72
2024/03/10 12:01:31;;;;;;;34.13;23.05;;;;;;;-146.18;100.00;67994.34;10360242;27;20051;-74
2024/03/10 12:06:29;;;;;;;33.05;21.65;;;;;;;-146.18;100.00;67994.34;10351731;27;20044;-74
2024/03/10 12:11:26;;;;;;;37.30;21.25;;;;;;;-146.18;100.00;67994.34;10349508;27;20067;-72
2024/03/10 12:16:23;;;;;;;29.00;19.50;;;;;;;-146.18;100.00;67994.34;10364728;27;20066;-74
2024/03/10 12:21:19;;;;;;;34.55;23.33;;;;;;;-146.18;100.00;67994.34;10346357;27;20139;-73
2024/03/10 12:26:16;;;;;;;35.53;24.35;;;;;;;-146.18;100.00;67994.34;10351429;27;20044;-74
2024/03/10 12:31:14;;;;;;;32.67;23.33;;;;;;;-146.18;100.00;67994.34;10353099;27;20444;-76
2024/03/10 12:36:12;;;;;;;32.53;22.00;;;;;;;-146.18;100.00;67994.34;10350713;27;20050;-75
2024/03/10 12:41:12;;;;;;;32.33;22.77;;;;;;;-146.18;100.00;67994.34;10348003;27;20044;-75
2024/03/10 12:46:17;;;;;;;32.22;22.17;;;;;;;-146.18;100.00;67994.34;10364400;27;20138;-74
2024/03/10 12:51:14;;;;;;;29.02;21.63;;;;;;;-146.18;100.00;67994.34;10346089;27;20046;-73
2024/03/10 12:56:13;;;;;;;29.88;21.85;;;;;;;-146.18;100.00;67994.34;10354903;27;20043;-74
2024/03/10 13:01:10;;;;;;;35.22;20.15;;;;;;;-146.18;100.00;67994.34;10361475;27;20042;-73
2024/03/10 13:06:07;;;;;;;30.52;20.88;;;;;;;-146.18;100.00;67994.34;10350646;27;20518;-73
2024/03/10 13:11:05;;;;;;;29.85;19.55;;;;;;;-146.18;100.00;67994.34;10357752;27;20044;-73
2024/03/10 13:16:02;;;;;;;33.50;22.38;;;;;;;-146.18;100.00;67994.34;10355758;27;20044;-72
2024/03/10 13:20:59;;;;;;;35.63;23.73;;;;;;;-146.18;100.00;67994.34;10363600;27;20048;-73
2024/03/10 13:25:56;;;;;;;33.25;23.35;;;;;;;-146.18;100.00;67994.34;10356925;27;20044;-72
2024/03/10 13:30:53;;;;;;;33.00;21.45;;;;;;;-146.18;100.00;67994.34;10353121;27;20044;-73
2024/03/10 13:35:51;;;;;;;32.40;21.55;;;;;;;-146.18;100.00;67994.34;10358977;27;20055;-73
2024/03/10 13:41:05;;;;;;;33.92;22.23;;;;;;;-146.18;100.00;67994.34;10350453;27;20047;-73
2024/03/10 13:46:03;;;;;;;30.73;20.75;;;;;;;-146.18;100.00;67994.34;10347197;28;20476;-74
2024/03/10 13:51:01;;;;;;;30.10;20.90;;;;;;;-146.18;100.00;67994.34;10349411;27;20078;-73
2024/03/10 13:55:58;;;;;;;31.38;20.58;;;;;;;-146.18;100.00;67994.34;10345516;27;20044;-73
2024/03/10 14:00:54;;;;;;;33.05;21.70;;;;;;;-146.18;100.00;67994.34;10358641;27;20345;-73
2024/03/10 14:05:52;;;;;;;30.50;20.92;;;;;;;-146.18;100.00;67994.34;10359418;27;20621;-73
2024/03/10 14:10:49;;;;;;;31.65;20.25;;;;;;;-146.18;100.00;67994.34;10347958;27;20047;-74
2024/03/10 14:15:46;;;;;;;21.67;14.63;;;;;;;-146.18;100.00;67994.34;10364401;27;20089;-74
2024/03/10 14:20:45;;;;;;;30.67;19.85;;;;;;;-146.18;100.00;67994.34;10366294;27;20039;-72
2024/03/10 14:25:42;;;;;;;30.55;21.25;;;;;;;-146.18;100.00;67994.34;10360091;27;20130;-72
2024/03/10 14:30:41;;;;;;;31.17;19.85;;;;;;;-146.18;100.00;67994.34;10363177;27;20075;-73
2024/03/10 14:35:38;;;;;;;24.63;17.58;;;;;;;-146.18;100.00;67994.34;10362763;27;20040;-73
2024/03/10 14:40:34;;;;;;;24.25;17.98;;;;;;;-146.18;100.00;67994.34;10368899;28;20102;-74
2024/03/10 14:45:31;;;;;;;28.70;18.00;;;;;;;-146.18;100.00;67994.34;10370823;27;20055;-73
2024/03/10 14:50:29;;;;;;;31.52;20.10;;;;;;;-146.18;100.00;67994.34;10353888;27;20055;-73
2024/03/10 14:55:27;;;;;;;28.88;20.70;;;;;;;-146.18;100.00;67994.34;10356300;27;20139;-74
2024/03/10 15:05:41;;;;;;;29.07;18.30;;;;;;;-146.18;100.00;67994.34;10355633;27;20048;-73
2024/03/10 15:10:41;;;;;;;30.02;18.63;;;;;;;-146.18;100.00;67994.34;10351722;27;20040;-73
2024/03/10 15:15:38;;;;;;;29.25;18.15;;;;;;;-146.18;100.00;67994.34;10352420;27;20647;-73
2024/03/10 15:20:39;;;;;;;25.45;16.88;;;;;;;-146.18;100.00;67994.34;10352054;27;20093;-74
2024/03/10 15:25:38;;;;;;;24.55;15.65;;;;;;;-146.18;100.00;67994.34;10346863;27;20675;-74
2024/03/10 15:30:38;;;;;;;28.20;17.77;;;;;;;-146.18;100.00;67994.34;10354222;27;20044;-75
2024/03/10 15:35:35;;;;;;;25.58;17.90;;;;;;;-146.18;100.00;67994.34;10362128;27;20119;-72
2024/03/10 15:40:32;;;;;;;27.42;17.83;;;;;;;-146.18;100.00;67994.34;10352187;28;20412;-74
2024/03/10 15:45:32;;;;;;;25.88;17.27;;;;;;;-146.18;100.00;67994.34;10352811;27;20064;-75
2024/03/10 15:50:29;;;;;;;26.67;18.15;;;;;;;-146.18;100.00;67994.34;10351419;27;20040;-73
2024/03/10 15:55:26;;;;;;;23.20;16.08;;;;;;;-146.18;100.00;67994.34;10358649;27;20478;-72
2024/03/10 16:00:23;;;;;;;24.50;16.73;;;;;;;-146.18;100.00;67994.34;10349702;27;20056;-72
2024/03/10 16:05:31;;;;;;;31.33;18.25;;;;;;;-146.18;100.00;67994.34;10353271;27;20044;-72
2024/03/10 16:10:27;;;;;;;28.45;16.35;;;;;;;-146.18;100.00;67994.34;10348451;27;20066;-73
2024/03/10 16:15:30;;;;;;;28.55;18.50;;;;;;;-146.18;100.00;67994.34;10348613;27;20555;-72
2024/03/10 16:20:27;;;;;;;27.77;18.40;;;;;;;-146.18;100.00;67994.34;10347730;27;20051;-71
2024/03/10 16:25:23;;;;;;;30.83;19.75;;;;;;;-146.18;100.00;67994.34;10353602;27;20093;-72
2024/03/10 16:30:21;;;;;;;38.47;23.15;;;;;;;-146.18;100.00;67994.34;10348755;27;20048;-71
2024/03/10 16:35:18;;;;;;;36.05;22.75;;;;;;;-146.18;100.00;67994.34;10355044;27;20093;-73
2024/03/10 16:40:15;;;;;;;30.50;20.45;;;;;;;-146.18;100.00;67994.34;10369632;27;20044;-73
2024/03/10 16:45:18;;;;;;;40.90;23.88;;;;;;;-146.18;100.00;67994.34;10354399;27;20056;-73
2024/03/10 16:50:23;;;;;;;39.72;22.92;;;;;;;-146.18;100.00;67994.34;10356554;27;20103;-71
2024/03/10 16:55:20;;;;;;;32.42;20.20;;;;;;;-146.18;100.00;67994.34;10350303;27;20135;-71
2024/03/10 17:00:17;;;;;;;41.00;24.08;;;;;;;-146.18;100.00;67994.34;10353089;27;20048;-72
2024/03/10 17:05:14;;;;;;;36.42;22.10;;;;;;;-146.18;100.00;67994.34;10355698;27;20051;-72
2024/03/10 17:10:12;;;;;;;39.33;23.67;;;;;;;-146.18;100.00;67994.34;10357782;27;20044;-73
2024/03/10 17:15:13;;;;;;;34.08;22.92;;;;;;;-146.18;100.00;67994.34;10350341;27;20406;-72
2024/03/10 17:20:11;;;;;;;34.90;23.92;;;;;;;-146.18;100.00;67994.34;10341712;28;20045;-72
2024/03/10 17:25:10;;;;;;;43.08;26.67;;;;;;;-146.18;100.00;67994.34;10413487;27;20046;-72
2024/03/10 17:30:08;;;;;;;27.38;19.25;;;;;;;-146.18;100.00;67994.34;10449789;27;20173;-73
2024/03/10 17:35:05;;;;;;;30.05;21.33;;;;;;;-146.18;100.00;67994.34;10448953;27;20426;-74
2024/03/10 17:40:03;;;;;;;36.17;22.40;;;;;;;-146.18;100.00;67994.34;10442490;27;20479;-72
2024/03/10 17:45:00;;;;;;;35.83;23.55;;;;;;;-146.18;100.00;67994.34;10437675;27;20049;-72
2024/03/10 17:49:57;;;;;;;36.97;23.27;;;;;;;-146.18;100.00;67994.34;10444029;27;20047;-76
2024/03/10 17:54:53;;;;;;;39.10;22.58;;;;;;;-146.18;100.00;67994.34;10444261;27;20047;-73
2024/03/10 17:59:52;;;;;;;39.63;25.10;;;;;;;-146.18;100.00;67994.34;10443843;27;20035;-75
2024/03/10 18:04:49;;;;;;;36.53;25.33;;;;;;;-146.18;100.00;67994.34;10441912;27;20035;-75
2024/03/10 18:09:46;;;;;;;40.88;25.02;;;;;;;-146.18;100.00;67994.34;10449297;27;20050;-73
2024/03/10 18:14:43;;;;;;;40.35;25.40;;;;;;;-146.18;100.00;67994.34;10443361;27;20047;-74
2024/03/10 18:19:39;;;;;;;34.10;22.70;;;;;;;-146.18;100.00;67994.34;10450684;27;20080;-76
2024/03/10 18:24:37;;;;;;;33.08;22.77;;;;;;;-146.18;100.00;67994.34;10435485;27;20050;-74
2024/03/10 18:29:33;;;;;;;33.20;21.88;;;;;;;-146.18;100.00;67994.34;10457402;27;20039;-74
2024/03/10 18:34:30;;;;;;;36.88;23.58;;;;;;;-146.18;100.00;67994.34;10447437;27;20069;-74
2024/03/10 18:39:27;;;;;;;35.75;23.52;;;;;;;-146.18;100.00;67994.34;10449842;27;20039;-75
2024/03/10 18:44:24;;;;;;;41.13;25.67;;;;;;;-146.18;100.00;67994.34;10449309;27;20128;-74
2024/03/10 18:49:21;;;;;;;36.58;23.67;;;;;;;-146.18;100.00;67994.34;10450151;27;20067;-74
2024/03/10 18:54:18;;;;;;;30.90;21.13;;;;;;;-146.18;100.00;67994.34;10442688;27;20065;-74
2024/03/10 18:59:14;;;;;;;35.63;24.05;;;;;;;-146.18;100.00;67994.34;10459781;27;20038;-73
2024/03/10 19:04:12;;;;;;;37.47;23.58;;;;;;;-146.18;100.00;67994.34;10461377;27;20043;-73
2024/03/10 19:09:10;;;;;;;31.45;20.98;;;;;;;-146.18;100.00;67994.34;10453869;27;20043;-74
2024/03/10 19:14:07;;;;;;;35.88;23.45;;;;;;;-146.18;100.00;67994.34;10459740;27;20051;-77
2024/03/10 19:19:05;;;;;;;33.22;22.13;;;;;;;-146.18;100.00;67994.34;10450711;27;20050;-72
2024/03/10 19:24:02;;;;;;;33.28;22.85;;;;;;;-146.18;100.00;67994.34;10454433;27;20043;-72
2024/03/10 19:28:58;;;;;;;37.28;24.33;;;;;;;-146.18;100.00;67994.34;10462116;27;20042;-73
2024/03/10 19:33:55;;;;;;;31.58;22.60;;;;;;;-146.18;100.00;67994.34;10455706;27;20541;-72
2024/03/10 19:38:52;;;;;;;30.30;22.73;;;;;;;-146.18;100.00;67994.34;10457220;27;20047;-73
2024/03/10 19:43:48;;;;;;;32.45;21.40;;;;;;;-146.18;100.00;67994.34;10440225;27;20091;-71
2024/03/10 19:48:46;;;;;;;34.67;23.00;;;;;;;-146.18;100.00;67994.34;10462386;27;20051;-71
2024/03/10 19:53:43;;;;;;;39.75;23.33;;;;;;;-146.18;100.00;67994.34;10440738;27;20509;-75
2024/03/10 19:58:40;;;;;;;31.60;20.98;;;;;;;-146.18;100.00;67994.34;10445350;27;20049;-76
2024/03/10 20:03:40;;;;;;;33.78;23.08;;;;;;;-146.18;100.00;67994.34;10452520;27;20413;-74
2024/03/10 20:08:39;;;;;;;33.08;23.13;;;;;;;-146.18;100.00;67994.34;10449609;27;20078;-74
2024/03/10 20:13:36;;;;;;;36.13;22.73;;;;;;;-146.18;100.00;67994.34;10443781;27;20047;-73
2024/03/10 20:18:34;;;;;;;36.55;22.05;;;;;;;-146.18;100.00;67994.34;10446344;27;20767;-75
2024/03/10 20:23:31;;;;;;;32.55;21.65;;;;;;;-146.18;100.00;67994.34;10453090;27;20046;-73
2024/03/10 20:28:29;;;;;;;26.48;17.98;;;;;;;-146.18;100.00;67994.34;10455188;27;20089;-71
2024/03/10 20:33:25;;;;;;;35.58;22.67;;;;;;;-146.18;100.00;67994.34;10446705;27;20506;-74
2024/03/10 20:38:22;;;;;;;31.27;21.10;;;;;;;-146.18;100.00;67994.34;10440274;27;20617;-73
2024/03/10 20:43:21;;;;;;;34.30;23.10;;;;;;;-146.18;100.00;67994.34;10445774;27;21291;-72
2024/03/10 20:48:17;;;;;;;31.42;20.98;;;;;;;-146.18;100.00;67994.34;10451104;27;20431;-73
2024/03/10 20:53:14;;;;;;;30.00;21.00;;;;;;;-146.18;100.00;67994.34;10448026;27;20066;-72
2024/03/10 20:58:12;;;;;;;32.33;21.33;;;;;;;-146.18;100.00;67994.34;10451503;27;20047;-71
2024/03/10 21:03:09;;;;;;;29.63;21.83;;;;;;;-146.18;100.00;67994.34;10434662;27;20067;-70
2024/03/10 21:08:06;;;;;;;29.38;19.27;;;;;;;-146.18;100.00;67994.34;10448630;27;20055;-73
2024/03/10 21:13:04;;;;;;;28.73;19.10;;;;;;;-146.18;100.00;67994.34;10439930;27;20072;-71
2024/03/10 21:18:01;;;;;;;20.30;15.15;;;;;;;-146.18;100.00;67994.34;10440068;27;20479;-72
2024/03/10 21:22:58;;;;;;;29.17;18.90;;;;;;;-146.18;100.00;67994.34;10450922;27;20042;-71
2024/03/10 21:27:54;;;;;;;23.73;16.27;;;;;;;-146.18;100.00;67994.34;10442467;27;20047;-70
2024/03/10 21:32:51;;;;;;;25.30;16.90;;;;;;;-146.18;100.00;67994.34;10453207;27;20064;-70
2024/03/10 21:37:47;;;;;;;25.45;16.17;;;;;;;-146.18;100.00;67994.34;10449776;27;20667;-70
2024/03/10 21:42:44;;;;;;;23.33;14.52;;;;;;;-146.18;100.00;67994.34;10447297;27;20493;-69
2024/03/10 21:47:41;;;;;;;25.90;17.00;;;;;;;-146.18;100.00;67994.34;10451562;27;20107;-71
2024/03/10 21:52:38;;;;;;;22.27;14.68;;;;;;;-146.18;100.00;67994.34;10447775;27;20046;-72
2024/03/10 21:57:35;;;;;;;27.77;17.38;;;;;;;-146.18;100.00;67994.34;10444405;27;20047;-72
2024/03/10 22:02:33;;;;;;;26.58;17.70;;;;;;;-146.18;100.00;67994.34;10452168;27;20071;-73
2024/03/10 22:07:29;;;;;;;25.05;17.42;;;;;;;-146.18;100.00;67994.34;10450195;27;20807;-71
2024/03/10 22:12:26;;;;;;;20.05;14.27;;;;;;;-146.18;100.00;67994.34;10469313;27;20051;-73